Terminal Aerodrome Forecast
Issued by NWS Missoula, MT

Home | Current Version | Previous Version | Text Only | Print | Product List | Glossary On
Versions: 1 2 3 4 5 6 7 8 9 10 11 12 13 14 15
000
FTUS45 KMSO 292002 AAC
TAFMSO
TAF AMD
KMSO 292002Z 2920/3018 VRB03KT 5SM FU SKC
     FM292100 30009KT 6SM FU SCT100
     FM300600 VRB03KT 5SM FU SKC=

USA.gov is the U.S. government's official web portal to all federal, state and local government web resources and services.